Hornbrook, California
Current Conditions -  °F | °C
As of 2:53 PM on Tuesday 27 Jan 2015 (Local Time) from KSIY Reporting Station
Scattered Clouds Scattered Clouds  
Wind Chill: 56°   Ceiling: Unl
Heat Index: 56°   Visibility: 10mi
Dew Point: 40°   Wind: 7mph
Humidity: 55%   Direction: 210°SSW
Pressure: 30.15"   Gusts: NA
Location:  41.91°N, 122.56°W
Report Text: KSIY 272253Z AUTO 21006KT 10SM SCT080 13/04 A3015 RMK AO2 SLP224 T01330044
Loading
Personal Weather Stations






























Interactive Weather Map New forecast layout! Learn more

10-Day Weather Forecast

Advertisements
Track Severe Weather on mobile